createdAt,value
2023-02-27T00:00:16.450Z,3.03
2023-02-27T00:05:16.695Z,3.08
2023-02-27T00:07:44.201Z,2.40
2023-02-27T00:10:13.918Z,2.50
2023-02-27T00:12:42.081Z,2.63
2023-02-27T00:15:16.294Z,2.42
2023-02-27T00:17:44.257Z,2.70
2023-02-27T00:20:14.415Z,2.45
2023-02-27T00:22:42.632Z,3.20
2023-02-27T00:25:10.787Z,2.47
2023-02-27T00:27:38.378Z,2.33
2023-02-27T00:30:08.766Z,2.58
2023-02-27T00:32:36.660Z,1.90
2023-02-27T00:35:09.700Z,1.92
2023-02-27T00:37:37.564Z,2.53
2023-02-27T00:40:05.697Z,2.67
2023-02-27T00:42:33.543Z,2.35
2023-02-27T00:45:02.825Z,2.60
2023-02-27T00:47:32.434Z,2.22
2023-02-27T00:49:59.361Z,2.95
2023-02-27T00:52:26.934Z,2.28
2023-02-27T00:54:54.075Z,2.72
2023-02-27T00:57:21.471Z,2.60
2023-02-27T00:59:50.174Z,2.50
2023-02-27T01:02:17.303Z,2.55
2023-02-27T01:04:44.346Z,1.80
2023-02-27T01:07:11.289Z,1.92
2023-02-27T01:09:38.523Z,1.88
2023-02-27T01:12:05.537Z,2.00
2023-02-27T01:14:32.639Z,1.80
2023-02-27T01:16:59.558Z,2.03
2023-02-27T01:19:26.568Z,1.90
2023-02-27T01:21:53.644Z,2.00
2023-02-27T01:24:21.937Z,1.85
2023-02-27T01:26:49.199Z,2.05
2023-02-27T01:29:16.337Z,2.00
2023-02-27T01:31:43.373Z,1.90
2023-02-27T01:34:11.464Z,1.77
2023-02-27T01:36:38.393Z,1.50
2023-02-27T01:39:05.326Z,1.95
2023-02-27T01:41:33.485Z,1.83
2023-02-27T01:44:09.825Z,1.73
2023-02-27T01:46:38.375Z,1.98
2023-02-27T01:49:11.940Z,1.50
2023-02-27T01:51:49.217Z,2.08
2023-02-27T01:54:21.817Z,2.00
2023-02-27T01:56:50.313Z,1.75
2023-02-27T01:59:18.581Z,1.70
2023-02-27T02:01:46.288Z,1.60
2023-02-27T02:04:27.758Z,1.50
2023-02-27T02:07:01.209Z,1.65
2023-02-27T02:09:30.549Z,1.40
2023-02-27T02:11:59.466Z,1.60
2023-02-27T02:14:26.574Z,1.20
2023-02-27T02:17:11.614Z,2.08
2023-02-27T02:23:13.433Z,1.48
2023-02-27T02:25:49.331Z,1.60
2023-02-27T02:28:43.867Z,1.70
2023-02-27T02:31:38.722Z,2.00
2023-02-27T02:34:25.684Z,2.08
2023-02-27T02:37:17.357Z,1.73
2023-02-27T02:40:21.860Z,2.20
2023-02-27T02:43:19.838Z,2.08
2023-02-27T02:45:55.145Z,1.65
2023-02-27T02:48:35.313Z,1.48
2023-02-27T02:51:22.248Z,1.55
2023-02-27T02:54:14.787Z,1.45
2023-02-27T02:56:50.530Z,1.40
2023-02-27T02:59:36.241Z,1.60
2023-02-27T03:04:55.846Z,1.63
2023-02-27T03:07:31.607Z,1.48
2023-02-27T03:10:25.220Z,1.42
2023-02-27T03:13:21.026Z,1.55
2023-02-27T03:16:09.056Z,1.50
2023-02-27T03:18:59.945Z,1.50
2023-02-27T03:21:58.314Z,1.50
2023-02-27T03:24:35.682Z,2.00
2023-02-27T03:27:09.098Z,1.52
2023-02-27T03:30:10.284Z,1.60
2023-02-27T03:32:56.813Z,1.50
2023-02-27T03:35:56.778Z,2.20
2023-02-27T03:39:22.040Z,1.92
2023-02-27T03:42:01.354Z,1.70
2023-02-27T03:45:08.243Z,1.92
2023-02-27T03:47:36.198Z,1.70
2023-02-27T03:50:03.788Z,2.42
2023-02-27T03:52:31.593Z,2.20
2023-02-27T03:55:16.959Z,2.40
2023-02-27T03:57:48.058Z,2.65
2023-02-27T04:00:23.112Z,1.88
2023-02-27T04:02:54.437Z,1.92
2023-02-27T04:05:25.469Z,2.08
2023-02-27T04:09:07.808Z,2.42
2023-02-27T04:11:57.246Z,2.25
2023-02-27T04:15:03.065Z,2.25
2023-02-27T04:17:39.679Z,2.20
2023-02-27T04:20:39.782Z,2.30
2023-02-27T04:23:24.289Z,1.98
2023-02-27T04:26:12.373Z,2.25
2023-02-27T04:29:05.059Z,2.10
2023-02-27T04:32:04.711Z,2.70
2023-02-27T04:34:44.455Z,2.65
2023-02-27T04:37:42.416Z,2.78
2023-02-27T04:40:20.598Z,2.92
2023-02-27T04:42:57.111Z,3.08
2023-02-27T04:45:27.485Z,2.80
2023-02-27T04:48:30.676Z,3.55
2023-02-27T04:51:27.145Z,3.40
2023-02-27T04:54:05.603Z,2.65
2023-02-27T04:56:40.478Z,2.63
2023-02-27T04:59:17.328Z,2.70
2023-02-27T05:01:54.110Z,3.00
2023-02-27T05:04:25.003Z,2.70
2023-02-27T05:06:55.785Z,2.70
2023-02-27T05:09:41.025Z,2.67
2023-02-27T05:12:28.876Z,2.42
2023-02-27T05:15:18.746Z,2.60
2023-02-27T05:17:59.786Z,2.78
2023-02-27T05:20:43.522Z,3.22
2023-02-27T05:23:30.022Z,3.03
2023-02-27T05:26:34.358Z,2.50
2023-02-27T05:29:36.528Z,3.55
2023-02-27T05:33:16.716Z,3.80
2023-02-27T05:36:16.047Z,2.35
2023-02-27T05:38:57.166Z,3.20
2023-02-27T05:41:48.651Z,4.00
2023-02-27T05:44:25.567Z,2.60
2023-02-27T05:47:07.895Z,3.10
2023-02-27T05:49:54.625Z,2.72
2023-02-27T05:52:27.768Z,3.10
2023-02-27T05:55:35.839Z,2.92
2023-02-27T05:58:28.614Z,3.15
2023-02-27T06:01:06.330Z,3.67
2023-02-27T06:03:36.439Z,3.38
2023-02-27T06:06:09.107Z,3.72
2023-02-27T06:08:36.798Z,2.80
2023-02-27T06:11:03.817Z,2.90
2023-02-27T06:13:30.945Z,3.22
2023-02-27T06:15:57.932Z,3.10
2023-02-27T06:18:24.941Z,2.40
2023-02-27T06:20:51.940Z,3.03
2023-02-27T06:23:18.993Z,2.95
2023-02-27T06:25:46.122Z,2.88
2023-02-27T06:28:13.468Z,2.88
2023-02-27T06:30:40.535Z,2.78
2023-02-27T06:33:07.683Z,3.33
2023-02-27T06:35:34.743Z,2.83
2023-02-27T06:38:01.751Z,2.60
2023-02-27T06:40:28.706Z,2.97
2023-02-27T06:42:55.631Z,2.83
2023-02-27T06:45:24.273Z,2.90
2023-02-27T06:47:51.176Z,2.45
2023-02-27T06:50:29.282Z,2.50
2023-02-27T06:52:56.330Z,2.40
2023-02-27T06:55:24.970Z,3.47
2023-02-27T06:57:51.883Z,2.90
2023-02-27T07:00:19.441Z,3.10
2023-02-27T07:02:46.772Z,2.50
2023-02-27T07:05:14.031Z,2.70
2023-02-27T07:07:41.055Z,3.15
2023-02-27T07:10:13.136Z,2.60
2023-02-27T07:12:41.159Z,3.33
2023-02-27T07:15:09.402Z,3.65
2023-02-27T07:17:36.504Z,3.17
2023-02-27T07:20:08.188Z,3.15
2023-02-27T07:22:35.637Z,3.60
2023-02-27T07:25:03.985Z,3.53
2023-02-27T07:27:31.597Z,4.10
2023-02-27T07:29:58.712Z,4.38
2023-02-27T07:32:25.717Z,3.85
2023-02-27T07:34:58.621Z,4.43
2023-02-27T07:37:27.935Z,3.75
2023-02-27T07:39:55.992Z,3.97
2023-02-27T07:42:22.879Z,4.03
2023-02-27T07:44:49.751Z,4.38
2023-02-27T07:47:17.751Z,3.72
2023-02-27T07:49:44.714Z,3.53
2023-02-27T07:52:11.871Z,3.80
2023-02-27T07:54:39.803Z,3.83
2023-02-27T07:57:07.024Z,4.30
2023-02-27T07:59:33.964Z,3.92
2023-02-27T08:02:00.828Z,4.82
2023-02-27T08:04:27.788Z,3.42
2023-02-27T08:06:54.755Z,4.68
2023-02-27T08:09:21.759Z,4.35
2023-02-27T08:11:49.395Z,4.53
2023-02-27T08:14:16.420Z,4.57
2023-02-27T08:16:43.343Z,4.32
2023-02-27T08:19:13.662Z,4.88
2023-02-27T08:21:41.582Z,4.10
2023-02-27T08:24:08.455Z,4.65
2023-02-27T08:26:35.580Z,4.47
2023-02-27T08:29:02.501Z,4.40
2023-02-27T08:31:29.655Z,3.75
2023-02-27T08:34:09.335Z,4.65
2023-02-27T08:36:39.212Z,4.00
2023-02-27T08:39:08.530Z,4.10
2023-02-27T08:41:36.766Z,4.05
2023-02-27T08:44:04.144Z,3.97
2023-02-27T08:46:33.894Z,4.10
2023-02-27T08:49:00.892Z,3.85
2023-02-27T08:51:28.178Z,3.33
2023-02-27T08:53:58.797Z,4.05
2023-02-27T08:56:27.982Z,4.10
2023-02-27T08:58:56.421Z,3.30
2023-02-27T09:01:24.031Z,3.47
2023-02-27T09:03:51.813Z,4.68
2023-02-27T09:06:18.777Z,4.60
2023-02-27T09:08:45.772Z,4.47
2023-02-27T09:11:15.812Z,4.47
2023-02-27T09:13:46.403Z,3.58
2023-02-27T09:16:23.764Z,2.92
2023-02-27T09:18:51.496Z,1.90
2023-02-27T09:21:24.867Z,2.63
2023-02-27T09:24:02.578Z,2.38
2023-02-27T09:26:58.250Z,2.45
2023-02-27T09:29:28.941Z,2.60
2023-02-27T09:31:56.078Z,2.17
2023-02-27T09:34:23.137Z,2.63
2023-02-27T09:36:50.162Z,2.63
2023-02-27T09:39:17.660Z,2.20
2023-02-27T09:42:05.308Z,2.10
2023-02-27T09:44:59.163Z,2.10
2023-02-27T09:47:42.053Z,2.42
2023-02-27T09:50:38.576Z,2.10
2023-02-27T09:53:13.702Z,2.50
2023-02-27T09:55:43.557Z,2.10
2023-02-27T09:58:50.636Z,2.17
2023-02-27T10:01:40.685Z,1.88
2023-02-27T10:04:16.344Z,2.50
2023-02-27T10:06:50.828Z,2.38
2023-02-27T10:10:21.146Z,2.00
2023-02-27T10:12:54.980Z,1.77
2023-02-27T10:15:33.453Z,1.55
2023-02-27T10:18:25.508Z,1.45
2023-02-27T10:21:19.685Z,1.60
2023-02-27T10:24:07.683Z,1.80
2023-02-27T10:26:44.141Z,1.23
2023-02-27T10:29:39.794Z,1.70
2023-02-27T10:32:33.203Z,1.95
2023-02-27T10:35:38.630Z,1.85
2023-02-27T10:38:32.712Z,2.08
2023-02-27T10:41:04.901Z,1.70
2023-02-27T10:43:32.041Z,2.15
2023-02-27T10:46:28.284Z,2.65
2023-02-27T10:49:00.271Z,2.85
2023-02-27T10:51:31.417Z,2.45
2023-02-27T10:54:23.632Z,2.35
2023-02-27T10:56:52.583Z,2.65
2023-02-27T10:59:25.638Z,2.50
2023-02-27T11:01:57.768Z,2.30
2023-02-27T11:04:36.508Z,1.95
2023-02-27T11:07:11.732Z,2.80
2023-02-27T11:12:29.331Z,2.47
2023-02-27T11:15:01.821Z,2.03
2023-02-27T11:17:34.777Z,2.13
2023-02-27T11:20:07.339Z,1.88
2023-02-27T11:22:34.425Z,2.28
2023-02-27T11:25:23.203Z,1.95
2023-02-27T11:27:52.176Z,2.03
2023-02-27T11:30:32.817Z,1.70
2023-02-27T11:33:02.450Z,2.15
2023-02-27T11:35:43.005Z,2.22
2023-02-27T11:38:29.316Z,1.90
2023-02-27T11:41:04.427Z,1.98
2023-02-27T11:43:50.882Z,1.83
2023-02-27T11:46:47.363Z,1.65
2023-02-27T11:49:34.718Z,1.67
2023-02-27T11:52:32.425Z,1.58
2023-02-27T11:55:05.035Z,1.40
2023-02-27T11:57:41.313Z,2.10
2023-02-27T12:00:36.540Z,1.73
2023-02-27T12:03:49.365Z,2.50
2023-02-27T12:06:43.994Z,1.67
2023-02-27T12:09:38.365Z,1.58
2023-02-27T12:12:20.532Z,1.73
2023-02-27T12:15:00.891Z,1.45
2023-02-27T12:17:40.814Z,1.85
2023-02-27T12:20:30.098Z,1.77
2023-02-27T12:22:57.136Z,1.70
2023-02-27T12:25:53.882Z,1.52
2023-02-27T12:28:39.864Z,1.30
2023-02-27T12:31:34.709Z,1.40
2023-02-27T12:34:16.836Z,1.20
2023-02-27T12:36:49.536Z,1.17
2023-02-27T12:39:24.896Z,1.02
2023-02-27T12:42:16.657Z,1.02
2023-02-27T12:45:33.292Z,1.00
2023-02-27T12:48:18.724Z,1.52
2023-02-27T12:51:04.289Z,1.38
2023-02-27T12:56:25.605Z,0.80
2023-02-27T12:59:24.727Z,0.98
2023-02-27T13:02:30.178Z,0.60
2023-02-27T13:05:31.395Z,0.70
2023-02-27T13:08:16.821Z,0.75
2023-02-27T13:10:50.868Z,1.02
2023-02-27T13:13:52.108Z,1.02
2023-02-27T13:16:50.646Z,0.57
2023-02-27T13:19:28.926Z,0.70
2023-02-27T13:22:34.046Z,1.10
2023-02-27T13:25:14.208Z,0.70
2023-02-27T13:27:47.216Z,0.60
2023-02-27T13:30:32.661Z,0.70
2023-02-27T13:33:25.186Z,0.65
2023-02-27T13:36:24.440Z,0.80
2023-02-27T13:38:55.258Z,0.65
2023-02-27T13:41:39.880Z,0.70
2023-02-27T13:44:22.572Z,0.80
2023-02-27T13:46:53.109Z,0.90
2023-02-27T13:49:29.521Z,0.40
2023-02-27T13:52:01.964Z,0.40
2023-02-27T13:54:39.141Z,0.50
2023-02-27T13:57:18.260Z,0.52
2023-02-27T13:59:58.297Z,0.60
2023-02-27T14:02:59.369Z,0.43
2023-02-27T14:05:42.655Z,0.25
2023-02-27T14:08:24.222Z,0.28
2023-02-27T14:11:30.589Z,0.40
2023-02-27T14:14:00.182Z,0.60
2023-02-27T14:16:39.922Z,0.40
2023-02-27T14:19:16.164Z,0.40
2023-02-27T14:22:22.444Z,0.68
2023-02-27T14:25:06.458Z,0.30
2023-02-27T14:27:50.261Z,0.60
2023-02-27T14:30:42.920Z,0.30
2023-02-27T14:33:40.972Z,0.20
2023-02-27T14:37:02.257Z,0.30
2023-02-27T14:39:34.645Z,0.20
2023-02-27T14:42:39.325Z,0.30
2023-02-27T14:45:24.558Z,0.40
2023-02-27T14:47:53.297Z,0.75
2023-02-27T14:50:37.323Z,0.30
2023-02-27T14:53:07.019Z,0.50
2023-02-27T14:55:37.063Z,0.20
2023-02-27T14:58:08.125Z,0.22
2023-02-27T15:00:36.946Z,0.22
2023-02-27T15:03:44.174Z,0.30
2023-02-27T15:06:28.163Z,0.40
2023-02-27T15:08:57.178Z,0.60
2023-02-27T15:11:25.973Z,0.40
2023-02-27T15:14:03.678Z,0.30
2023-02-27T15:16:37.597Z,0.50
2023-02-27T15:19:29.073Z,0.45
2023-02-27T15:22:05.269Z,0.47
2023-02-27T15:24:49.765Z,0.70
2023-02-27T15:27:22.839Z,0.88
2023-02-27T15:30:00.062Z,0.98
2023-02-27T15:32:33.375Z,0.70
2023-02-27T15:35:42.534Z,0.90
2023-02-27T15:38:32.745Z,1.00
2023-02-27T15:41:03.328Z,1.10
2023-02-27T15:43:31.680Z,1.10
2023-02-27T15:45:59.214Z,1.00
2023-02-27T15:48:26.906Z,1.10
2023-02-27T15:50:58.541Z,1.67
2023-02-27T15:53:29.879Z,0.95
2023-02-27T15:56:09.526Z,0.90
2023-02-27T15:59:05.229Z,0.70
2023-02-27T16:01:34.945Z,1.20
2023-02-27T16:04:20.617Z,1.10
2023-02-27T16:09:32.720Z,0.70
2023-02-27T16:12:33.245Z,0.50
2023-02-27T16:15:30.094Z,0.77
2023-02-27T16:18:17.195Z,0.63
2023-02-27T16:20:55.718Z,0.50
2023-02-27T16:23:29.577Z,0.70
2023-02-27T16:26:32.513Z,0.50
2023-02-27T16:29:19.725Z,0.60
2023-02-27T16:31:58.036Z,0.63
2023-02-27T16:34:47.790Z,0.68
2023-02-27T16:37:27.539Z,0.80
2023-02-27T16:39:54.636Z,0.65
2023-02-27T16:42:22.897Z,0.75
2023-02-27T16:44:50.003Z,1.67
2023-02-27T16:47:21.845Z,0.60
2023-02-27T16:49:52.893Z,0.52
2023-02-27T16:52:22.586Z,0.60
2023-02-27T16:54:49.664Z,0.60
2023-02-27T16:57:17.735Z,0.95
2023-02-27T16:59:44.745Z,0.60
2023-02-27T17:02:15.108Z,1.00
2023-02-27T17:04:47.933Z,0.70
2023-02-27T17:07:17.973Z,0.80
2023-02-27T17:09:47.488Z,0.88
2023-02-27T17:12:14.710Z,0.70
2023-02-27T17:14:41.579Z,0.82
2023-02-27T17:17:10.969Z,0.82
2023-02-27T17:19:38.525Z,0.80
2023-02-27T17:22:05.515Z,0.75
2023-02-27T17:24:32.776Z,0.90
2023-02-27T17:55:19.071Z,1.40
2023-02-27T17:57:46.145Z,1.77
2023-02-27T18:00:15.314Z,1.70
2023-02-27T18:02:45.027Z,1.40
2023-02-27T18:05:12.335Z,1.35
2023-02-27T18:07:40.097Z,1.92
2023-02-27T18:10:09.286Z,1.30
2023-02-27T18:12:37.455Z,1.90
2023-02-27T18:15:06.095Z,1.48
2023-02-27T18:17:33.451Z,1.40
2023-02-27T18:20:00.673Z,1.80
2023-02-27T18:22:29.921Z,1.55
2023-02-27T18:24:58.625Z,1.60
2023-02-27T18:27:26.712Z,2.03
2023-02-27T18:29:53.911Z,1.63
2023-02-27T18:32:21.161Z,1.42
2023-02-27T18:34:48.284Z,2.00
2023-02-27T18:37:15.352Z,2.92
2023-02-27T18:39:42.716Z,1.80
2023-02-27T18:42:09.669Z,1.58
2023-02-27T18:44:38.680Z,1.42
2023-02-27T18:47:05.714Z,1.90
2023-02-27T18:49:33.047Z,1.83
2023-02-27T18:51:59.943Z,1.90
2023-02-27T18:54:26.896Z,2.15
2023-02-27T18:56:54.106Z,2.92
2023-02-27T18:59:21.112Z,3.05
2023-02-27T19:01:48.050Z,2.88
2023-02-27T19:04:15.016Z,2.90
2023-02-27T19:06:42.788Z,2.60
2023-02-27T19:09:17.862Z,2.50
2023-02-27T19:11:46.992Z,2.50
2023-02-27T19:14:16.092Z,2.58
2023-02-27T19:16:44.226Z,2.30
2023-02-27T19:19:11.913Z,2.08
2023-02-27T19:21:40.134Z,2.25
2023-02-27T19:24:09.118Z,2.85
2023-02-27T19:26:36.404Z,2.70
2023-02-27T19:29:05.425Z,2.47
2023-02-27T19:31:33.108Z,3.00
2023-02-27T19:34:01.605Z,2.53
2023-02-27T19:36:31.161Z,2.88
2023-02-27T19:38:59.208Z,2.47
2023-02-27T19:41:27.458Z,2.58
2023-02-27T19:43:55.222Z,2.35
2023-02-27T19:46:34.934Z,2.40
2023-02-27T19:49:06.130Z,2.35
2023-02-27T19:51:34.123Z,2.28
2023-02-27T19:54:01.164Z,2.50
2023-02-27T19:56:29.810Z,2.90
2023-02-27T19:58:57.893Z,2.80
2023-02-27T20:01:27.861Z,2.65
2023-02-27T20:03:59.257Z,2.45
2023-02-27T20:06:30.741Z,2.42
2023-02-27T20:08:59.633Z,2.22
2023-02-27T20:11:31.627Z,2.60
2023-02-27T20:14:00.148Z,2.30
2023-02-27T20:16:30.409Z,2.35
2023-02-27T20:18:57.961Z,2.60
2023-02-27T20:21:28.506Z,2.90
2023-02-27T20:23:57.938Z,2.72
2023-02-27T20:26:31.646Z,2.65
2023-02-27T20:29:11.301Z,2.67
2023-02-27T20:31:41.086Z,2.97
2023-02-27T20:34:11.675Z,4.15
2023-02-27T20:36:40.428Z,2.78
2023-02-27T20:39:10.285Z,2.92
2023-02-27T20:41:38.717Z,3.25
2023-02-27T20:44:08.528Z,2.90
2023-02-27T20:46:36.371Z,3.00
2023-02-27T20:49:05.995Z,3.40
2023-02-27T20:51:37.045Z,3.58
2023-02-27T20:54:08.804Z,3.40
2023-02-27T20:56:41.224Z,3.00
2023-02-27T20:59:14.527Z,3.67
2023-02-27T21:01:51.141Z,3.35
2023-02-27T21:04:45.440Z,3.45
2023-02-27T21:07:16.248Z,3.58
2023-02-27T21:09:43.194Z,3.00
2023-02-27T21:12:10.811Z,3.70
2023-02-27T21:14:37.853Z,3.45
2023-02-27T21:17:06.032Z,3.35
2023-02-27T21:19:33.165Z,3.72
2023-02-27T21:22:00.172Z,3.00
2023-02-27T21:24:27.165Z,3.35
2023-02-27T21:26:54.235Z,3.17
2023-02-27T21:29:22.049Z,3.15
2023-02-27T21:31:51.438Z,2.90
2023-02-27T21:34:25.687Z,3.13
2023-02-27T21:36:53.159Z,2.80
2023-02-27T21:39:25.368Z,3.42
2023-02-27T21:41:53.228Z,3.22
2023-02-27T21:44:25.165Z,3.90
2023-02-27T21:46:54.003Z,3.05
2023-02-27T21:49:25.257Z,3.30
2023-02-27T21:51:53.022Z,3.08
2023-02-27T21:54:21.053Z,3.08
2023-02-27T21:56:49.012Z,3.45
2023-02-27T21:59:19.014Z,2.92
2023-02-27T22:01:48.516Z,3.20
2023-02-27T22:04:18.570Z,3.40
2023-02-27T22:06:47.122Z,3.70
2023-02-27T22:09:14.050Z,3.28
2023-02-27T22:11:41.110Z,3.70
2023-02-27T22:14:10.308Z,4.20
2023-02-27T22:16:37.621Z,3.88
2023-02-27T22:19:11.251Z,4.05
2023-02-27T22:21:38.898Z,4.82
2023-02-27T22:24:07.199Z,4.20
2023-02-27T22:26:34.575Z,3.97
2023-02-27T22:29:02.554Z,4.20
2023-02-27T22:31:36.542Z,4.03
2023-02-27T22:34:18.402Z,3.55
2023-02-27T22:36:52.539Z,3.67
2023-02-27T22:39:20.492Z,3.85
2023-02-27T22:41:47.451Z,3.75
2023-02-27T22:44:16.160Z,3.38
2023-02-27T22:46:47.175Z,2.80
2023-02-27T22:49:23.420Z,4.60
2023-02-27T22:51:52.271Z,3.92
2023-02-27T22:54:22.057Z,4.07
2023-02-27T22:56:53.521Z,3.63
2023-02-27T22:59:21.134Z,3.60
2023-02-27T23:01:48.844Z,3.28
2023-02-27T23:04:19.405Z,3.72
2023-02-27T23:06:46.446Z,3.90
2023-02-27T23:09:19.008Z,3.47
2023-02-27T23:11:46.399Z,3.63
2023-02-27T23:14:14.771Z,3.00
2023-02-27T23:16:45.624Z,3.13
2023-02-27T23:19:19.946Z,3.17
2023-02-27T23:21:47.702Z,3.40
2023-02-27T23:24:18.137Z,4.30
2023-02-27T23:26:48.887Z,3.72
2023-02-27T23:29:16.302Z,3.65
2023-02-27T23:31:43.348Z,4.07
2023-02-27T23:34:10.980Z,3.85
2023-02-27T23:36:39.013Z,3.30
2023-02-27T23:39:07.010Z,3.80
2023-02-27T23:41:34.870Z,3.72
2023-02-27T23:44:02.120Z,3.60
2023-02-27T23:46:30.401Z,4.00
2023-02-27T23:49:01.953Z,4.00
2023-02-27T23:51:31.029Z,4.28
2023-02-27T23:53:59.561Z,4.50
2023-02-27T23:56:30.128Z,4.20
2023-02-27T23:59:01.711Z,3.65
